sensor_id;sensor_type;location;lat;lon;timestamp;P1;durP1;ratioP1;P2;durP2;ratioP2
46717;SDS011;32448;44.960;-0.698;2022-09-29T00:01:05;9.85;;;1.33;;
46717;SDS011;32448;44.960;-0.698;2022-09-29T00:03:33;8.52;;;1.42;;
46717;SDS011;32448;44.960;-0.698;2022-09-29T00:06:00;5.47;;;1.40;;
46717;SDS011;32448;44.960;-0.698;2022-09-29T00:08:28;7.18;;;1.42;;
46717;SDS011;32448;44.960;-0.698;2022-09-29T00:10:56;9.63;;;1.55;;
46717;SDS011;32448;44.960;-0.698;2022-09-29T00:13:24;12.30;;;1.60;;
46717;SDS011;32448;44.960;-0.698;2022-09-29T00:15:58;12.35;;;1.73;;
46717;SDS011;32448;44.960;-0.698;2022-09-29T00:18:28;9.07;;;1.13;;
46717;SDS011;32448;44.960;-0.698;2022-09-29T00:21:01;5.30;;;1.27;;
46717;SDS011;32448;44.960;-0.698;2022-09-29T00:23:31;5.20;;;1.58;;
46717;SDS011;32448;44.960;-0.698;2022-09-29T00:26:07;7.15;;;1.55;;
46717;SDS011;32448;44.960;-0.698;2022-09-29T00:28:37;10.80;;;1.70;;
46717;SDS011;32448;44.960;-0.698;2022-09-29T00:31:06;5.22;;;1.38;;
46717;SDS011;32448;44.960;-0.698;2022-09-29T00:33:34;7.72;;;1.83;;
46717;SDS011;32448;44.960;-0.698;2022-09-29T00:36:06;8.82;;;1.40;;
46717;SDS011;32448;44.960;-0.698;2022-09-29T00:38:36;12.68;;;1.88;;
46717;SDS011;32448;44.960;-0.698;2022-09-29T00:41:04;4.68;;;1.48;;
46717;SDS011;32448;44.960;-0.698;2022-09-29T00:46:35;8.20;;;1.25;;
46717;SDS011;32448;44.960;-0.698;2022-09-29T00:49:13;6.28;;;1.45;;
46717;SDS011;32448;44.960;-0.698;2022-09-29T00:51:51;9.85;;;2.03;;
46717;SDS011;32448;44.960;-0.698;2022-09-29T00:54:25;5.07;;;1.20;;
46717;SDS011;32448;44.960;-0.698;2022-09-29T00:56:55;11.88;;;1.75;;
46717;SDS011;32448;44.960;-0.698;2022-09-29T00:59:33;6.82;;;1.10;;
46717;SDS011;32448;44.960;-0.698;2022-09-29T01:02:08;6.10;;;1.55;;
46717;SDS011;32448;44.960;-0.698;2022-09-29T01:04:36;6.40;;;1.30;;
46717;SDS011;32448;44.960;-0.698;2022-09-29T01:07:03;6.82;;;1.50;;
46717;SDS011;32448;44.960;-0.698;2022-09-29T01:09:31;6.93;;;1.30;;
46717;SDS011;32448;44.960;-0.698;2022-09-29T01:12:03;4.53;;;1.30;;
46717;SDS011;32448;44.960;-0.698;2022-09-29T01:14:31;7.50;;;1.33;;
46717;SDS011;32448;44.960;-0.698;2022-09-29T01:17:00;5.95;;;1.15;;
46717;SDS011;32448;44.960;-0.698;2022-09-29T01:22:23;5.55;;;1.50;;
46717;SDS011;32448;44.960;-0.698;2022-09-29T01:30:19;8.05;;;1.58;;
46717;SDS011;32448;44.960;-0.698;2022-09-29T01:32:51;6.43;;;1.30;;
46717;SDS011;32448;44.960;-0.698;2022-09-29T01:35:33;8.10;;;1.67;;
46717;SDS011;32448;44.960;-0.698;2022-09-29T01:38:21;6.15;;;1.25;;
46717;SDS011;32448;44.960;-0.698;2022-09-29T01:43:45;5.85;;;1.25;;
46717;SDS011;32448;44.960;-0.698;2022-09-29T01:46:30;4.75;;;1.40;;
46717;SDS011;32448;44.960;-0.698;2022-09-29T01:49:09;2.83;;;0.93;;
46717;SDS011;32448;44.960;-0.698;2022-09-29T01:51:49;17.65;;;2.03;;
46717;SDS011;32448;44.960;-0.698;2022-09-29T01:54:24;8.55;;;1.40;;
46717;SDS011;32448;44.960;-0.698;2022-09-29T01:56:59;7.18;;;1.33;;
46717;SDS011;32448;44.960;-0.698;2022-09-29T01:59:44;8.90;;;1.10;;
46717;SDS011;32448;44.960;-0.698;2022-09-29T02:02:39;8.18;;;1.92;;
46717;SDS011;32448;44.960;-0.698;2022-09-29T02:05:18;8.18;;;1.67;;
46717;SDS011;32448;44.960;-0.698;2022-09-29T02:07:51;9.05;;;1.23;;
46717;SDS011;32448;44.960;-0.698;2022-09-29T02:10:30;8.13;;;1.50;;
46717;SDS011;32448;44.960;-0.698;2022-09-29T02:13:02;7.60;;;1.52;;
46717;SDS011;32448;44.960;-0.698;2022-09-29T02:18:09;6.75;;;1.17;;
46717;SDS011;32448;44.960;-0.698;2022-09-29T02:20:42;5.07;;;1.10;;
46717;SDS011;32448;44.960;-0.698;2022-09-29T02:23:09;7.90;;;1.17;;
46717;SDS011;32448;44.960;-0.698;2022-09-29T02:25:37;6.43;;;1.42;;
46717;SDS011;32448;44.960;-0.698;2022-09-29T02:28:06;15.52;;;1.50;;
46717;SDS011;32448;44.960;-0.698;2022-09-29T02:30:33;6.90;;;1.10;;
46717;SDS011;32448;44.960;-0.698;2022-09-29T02:33:01;6.22;;;1.70;;
46717;SDS011;32448;44.960;-0.698;2022-09-29T02:35:41;4.93;;;1.33;;
46717;SDS011;32448;44.960;-0.698;2022-09-29T02:38:20;7.78;;;1.35;;
46717;SDS011;32448;44.960;-0.698;2022-09-29T02:41:05;7.70;;;1.40;;
46717;SDS011;32448;44.960;-0.698;2022-09-29T02:44:28;5.35;;;1.10;;
46717;SDS011;32448;44.960;-0.698;2022-09-29T02:49:25;7.15;;;1.50;;
46717;SDS011;32448;44.960;-0.698;2022-09-29T02:52:12;5.53;;;1.50;;
46717;SDS011;32448;44.960;-0.698;2022-09-29T02:55:06;8.40;;;1.42;;
46717;SDS011;32448;44.960;-0.698;2022-09-29T02:57:49;7.53;;;1.35;;
46717;SDS011;32448;44.960;-0.698;2022-09-29T03:00:22;7.97;;;1.50;;
46717;SDS011;32448;44.960;-0.698;2022-09-29T03:02:51;7.32;;;1.10;;
46717;SDS011;32448;44.960;-0.698;2022-09-29T03:05:19;8.35;;;1.23;;
46717;SDS011;32448;44.960;-0.698;2022-09-29T03:07:48;7.40;;;1.20;;
46717;SDS011;32448;44.960;-0.698;2022-09-29T03:10:16;6.22;;;1.25;;
46717;SDS011;32448;44.960;-0.698;2022-09-29T03:12:44;9.00;;;1.52;;
46717;SDS011;32448;44.960;-0.698;2022-09-29T03:15:13;6.13;;;1.20;;
46717;SDS011;32448;44.960;-0.698;2022-09-29T03:17:40;4.72;;;1.33;;
46717;SDS011;32448;44.960;-0.698;2022-09-29T03:20:07;8.75;;;1.30;;
46717;SDS011;32448;44.960;-0.698;2022-09-29T03:22:36;3.88;;;1.20;;
46717;SDS011;32448;44.960;-0.698;2022-09-29T03:25:04;4.13;;;1.33;;
46717;SDS011;32448;44.960;-0.698;2022-09-29T03:27:32;5.45;;;1.10;;
46717;SDS011;32448;44.960;-0.698;2022-09-29T03:30:04;5.32;;;1.40;;
46717;SDS011;32448;44.960;-0.698;2022-09-29T03:32:32;6.00;;;1.40;;
46717;SDS011;32448;44.960;-0.698;2022-09-29T03:34:59;13.38;;;1.55;;
46717;SDS011;32448;44.960;-0.698;2022-09-29T03:37:26;10.48;;;1.73;;
46717;SDS011;32448;44.960;-0.698;2022-09-29T03:39:54;6.25;;;1.30;;
46717;SDS011;32448;44.960;-0.698;2022-09-29T03:42:21;4.47;;;1.27;;
46717;SDS011;32448;44.960;-0.698;2022-09-29T03:44:49;9.70;;;1.30;;
46717;SDS011;32448;44.960;-0.698;2022-09-29T03:47:16;12.13;;;1.40;;
46717;SDS011;32448;44.960;-0.698;2022-09-29T03:49:44;8.27;;;1.55;;
46717;SDS011;32448;44.960;-0.698;2022-09-29T03:52:11;6.32;;;1.23;;
46717;SDS011;32448;44.960;-0.698;2022-09-29T03:54:38;8.77;;;1.50;;
46717;SDS011;32448;44.960;-0.698;2022-09-29T03:57:06;8.10;;;1.50;;
46717;SDS011;32448;44.960;-0.698;2022-09-29T03:59:33;4.68;;;1.20;;
46717;SDS011;32448;44.960;-0.698;2022-09-29T04:02:00;8.68;;;1.55;;
46717;SDS011;32448;44.960;-0.698;2022-09-29T04:04:28;4.10;;;1.35;;
46717;SDS011;32448;44.960;-0.698;2022-09-29T04:06:55;5.97;;;1.50;;
46717;SDS011;32448;44.960;-0.698;2022-09-29T04:09:22;6.50;;;1.55;;
46717;SDS011;32448;44.960;-0.698;2022-09-29T04:11:50;7.47;;;1.85;;
46717;SDS011;32448;44.960;-0.698;2022-09-29T04:14:17;7.75;;;1.70;;
46717;SDS011;32448;44.960;-0.698;2022-09-29T04:16:44;9.50;;;1.35;;
46717;SDS011;32448;44.960;-0.698;2022-09-29T04:19:12;9.10;;;1.75;;
46717;SDS011;32448;44.960;-0.698;2022-09-29T04:21:39;10.18;;;1.55;;
46717;SDS011;32448;44.960;-0.698;2022-09-29T04:24:07;6.20;;;1.15;;
46717;SDS011;32448;44.960;-0.698;2022-09-29T04:26:34;6.90;;;1.50;;
46717;SDS011;32448;44.960;-0.698;2022-09-29T04:29:01;3.75;;;1.10;;
46717;SDS011;32448;44.960;-0.698;2022-09-29T04:31:29;7.32;;;1.40;;
46717;SDS011;32448;44.960;-0.698;2022-09-29T04:33:56;11.68;;;1.50;;
46717;SDS011;32448;44.960;-0.698;2022-09-29T04:36:23;5.05;;;1.52;;
46717;SDS011;32448;44.960;-0.698;2022-09-29T04:38:51;10.90;;;1.50;;
46717;SDS011;32448;44.960;-0.698;2022-09-29T04:41:25;6.47;;;1.38;;
46717;SDS011;32448;44.960;-0.698;2022-09-29T04:43:56;6.53;;;1.33;;
46717;SDS011;32448;44.960;-0.698;2022-09-29T04:46:26;5.55;;;1.30;;
46717;SDS011;32448;44.960;-0.698;2022-09-29T04:48:54;6.95;;;1.50;;
46717;SDS011;32448;44.960;-0.698;2022-09-29T04:51:22;6.72;;;2.13;;
46717;SDS011;32448;44.960;-0.698;2022-09-29T04:53:49;5.57;;;1.65;;
46717;SDS011;32448;44.960;-0.698;2022-09-29T04:56:18;9.48;;;1.40;;
46717;SDS011;32448;44.960;-0.698;2022-09-29T04:58:46;4.55;;;1.10;;
46717;SDS011;32448;44.960;-0.698;2022-09-29T05:01:13;5.53;;;1.60;;
46717;SDS011;32448;44.960;-0.698;2022-09-29T05:03:41;10.15;;;1.52;;
46717;SDS011;32448;44.960;-0.698;2022-09-29T05:06:09;4.63;;;1.70;;
46717;SDS011;32448;44.960;-0.698;2022-09-29T05:08:37;7.07;;;1.48;;
46717;SDS011;32448;44.960;-0.698;2022-09-29T05:11:05;6.13;;;1.00;;
46717;SDS011;32448;44.960;-0.698;2022-09-29T05:13:34;6.72;;;1.50;;
46717;SDS011;32448;44.960;-0.698;2022-09-29T05:16:02;5.90;;;1.40;;
46717;SDS011;32448;44.960;-0.698;2022-09-29T05:18:30;7.00;;;1.15;;
46717;SDS011;32448;44.960;-0.698;2022-09-29T05:21:01;6.10;;;1.30;;
46717;SDS011;32448;44.960;-0.698;2022-09-29T05:23:50;3.47;;;1.50;;
46717;SDS011;32448;44.960;-0.698;2022-09-29T05:26:18;11.35;;;1.33;;
46717;SDS011;32448;44.960;-0.698;2022-09-29T05:28:45;7.50;;;1.33;;
46717;SDS011;32448;44.960;-0.698;2022-09-29T05:31:13;2.85;;;1.00;;
46717;SDS011;32448;44.960;-0.698;2022-09-29T05:33:41;3.50;;;1.20;;
46717;SDS011;32448;44.960;-0.698;2022-09-29T05:36:10;3.78;;;1.40;;
46717;SDS011;32448;44.960;-0.698;2022-09-29T05:38:38;5.20;;;1.50;;
46717;SDS011;32448;44.960;-0.698;2022-09-29T05:41:07;2.97;;;1.38;;
46717;SDS011;32448;44.960;-0.698;2022-09-29T05:43:36;5.00;;;1.80;;
46717;SDS011;32448;44.960;-0.698;2022-09-29T05:46:05;3.55;;;1.40;;
46717;SDS011;32448;44.960;-0.698;2022-09-29T05:48:34;2.85;;;1.20;;
46717;SDS011;32448;44.960;-0.698;2022-09-29T05:51:06;6.97;;;1.05;;
46717;SDS011;32448;44.960;-0.698;2022-09-29T05:53:35;5.22;;;1.30;;
46717;SDS011;32448;44.960;-0.698;2022-09-29T05:56:04;4.68;;;1.55;;
46717;SDS011;32448;44.960;-0.698;2022-09-29T05:58:40;3.58;;;0.95;;
46717;SDS011;32448;44.960;-0.698;2022-09-29T06:01:08;7.10;;;2.10;;
46717;SDS011;32448;44.960;-0.698;2022-09-29T06:03:37;5.10;;;1.33;;
46717;SDS011;32448;44.960;-0.698;2022-09-29T06:06:09;3.47;;;1.30;;
46717;SDS011;32448;44.960;-0.698;2022-09-29T06:08:43;7.40;;;1.67;;
46717;SDS011;32448;44.960;-0.698;2022-09-29T06:11:12;5.47;;;1.63;;
46717;SDS011;32448;44.960;-0.698;2022-09-29T06:13:46;2.45;;;1.23;;
46717;SDS011;32448;44.960;-0.698;2022-09-29T06:16:14;8.45;;;1.70;;
46717;SDS011;32448;44.960;-0.698;2022-09-29T06:18:43;6.05;;;1.60;;
46717;SDS011;32448;44.960;-0.698;2022-09-29T06:21:15;6.60;;;1.50;;
46717;SDS011;32448;44.960;-0.698;2022-09-29T06:23:44;3.58;;;1.10;;
46717;SDS011;32448;44.960;-0.698;2022-09-29T06:26:13;6.68;;;1.67;;
46717;SDS011;32448;44.960;-0.698;2022-09-29T06:28:47;4.35;;;1.45;;
46717;SDS011;32448;44.960;-0.698;2022-09-29T06:31:15;4.45;;;1.42;;
46717;SDS011;32448;44.960;-0.698;2022-09-29T06:33:44;4.40;;;1.80;;
46717;SDS011;32448;44.960;-0.698;2022-09-29T06:36:18;3.67;;;1.30;;
46717;SDS011;32448;44.960;-0.698;2022-09-29T06:39:08;4.03;;;1.52;;
46717;SDS011;32448;44.960;-0.698;2022-09-29T06:41:38;4.32;;;1.40;;
46717;SDS011;32448;44.960;-0.698;2022-09-29T06:44:07;7.32;;;1.63;;
46717;SDS011;32448;44.960;-0.698;2022-09-29T06:46:34;13.60;;;2.30;;
46717;SDS011;32448;44.960;-0.698;2022-09-29T06:49:01;8.88;;;2.20;;
46717;SDS011;32448;44.960;-0.698;2022-09-29T06:51:28;9.80;;;2.90;;
46717;SDS011;32448;44.960;-0.698;2022-09-29T06:54:10;10.52;;;3.17;;
46717;SDS011;32448;44.960;-0.698;2022-09-29T06:56:40;7.03;;;2.50;;
46717;SDS011;32448;44.960;-0.698;2022-09-29T06:59:08;7.80;;;2.85;;
46717;SDS011;32448;44.960;-0.698;2022-09-29T07:01:35;7.28;;;2.15;;
46717;SDS011;32448;44.960;-0.698;2022-09-29T07:04:02;10.23;;;2.55;;
46717;SDS011;32448;44.960;-0.698;2022-09-29T07:06:29;8.07;;;2.75;;
46717;SDS011;32448;44.960;-0.698;2022-09-29T07:08:57;10.18;;;2.33;;
46717;SDS011;32448;44.960;-0.698;2022-09-29T07:11:25;5.70;;;2.05;;
46717;SDS011;32448;44.960;-0.698;2022-09-29T07:13:53;6.50;;;2.22;;
46717;SDS011;32448;44.960;-0.698;2022-09-29T07:16:21;6.80;;;2.00;;
46717;SDS011;32448;44.960;-0.698;2022-09-29T07:18:50;8.27;;;2.13;;
46717;SDS011;32448;44.960;-0.698;2022-09-29T07:21:19;7.20;;;1.90;;
46717;SDS011;32448;44.960;-0.698;2022-09-29T07:23:47;7.25;;;1.90;;
46717;SDS011;32448;44.960;-0.698;2022-09-29T07:26:15;7.32;;;2.20;;
46717;SDS011;32448;44.960;-0.698;2022-09-29T07:28:44;6.20;;;1.77;;
46717;SDS011;32448;44.960;-0.698;2022-09-29T07:31:14;4.65;;;2.03;;
46717;SDS011;32448;44.960;-0.698;2022-09-29T07:33:44;7.60;;;2.10;;
46717;SDS011;32448;44.960;-0.698;2022-09-29T07:36:14;8.05;;;2.47;;
46717;SDS011;32448;44.960;-0.698;2022-09-29T07:38:49;5.30;;;2.50;;
46717;SDS011;32448;44.960;-0.698;2022-09-29T07:41:18;9.40;;;2.58;;
46717;SDS011;32448;44.960;-0.698;2022-09-29T07:43:47;4.95;;;2.78;;
46717;SDS011;32448;44.960;-0.698;2022-09-29T07:46:14;9.60;;;3.10;;
46717;SDS011;32448;44.960;-0.698;2022-09-29T07:48:41;8.18;;;2.63;;
46717;SDS011;32448;44.960;-0.698;2022-09-29T07:51:09;5.32;;;2.33;;
46717;SDS011;32448;44.960;-0.698;2022-09-29T07:53:39;6.53;;;2.78;;
46717;SDS011;32448;44.960;-0.698;2022-09-29T07:56:17;7.15;;;2.47;;
46717;SDS011;32448;44.960;-0.698;2022-09-29T07:58:47;6.20;;;2.33;;
46717;SDS011;32448;44.960;-0.698;2022-09-29T08:01:18;7.50;;;2.28;;
46717;SDS011;32448;44.960;-0.698;2022-09-29T08:03:50;5.82;;;2.42;;
46717;SDS011;32448;44.960;-0.698;2022-09-29T08:06:20;7.28;;;2.38;;
46717;SDS011;32448;44.960;-0.698;2022-09-29T08:08:48;8.40;;;2.20;;
46717;SDS011;32448;44.960;-0.698;2022-09-29T08:11:29;7.10;;;2.13;;
46717;SDS011;32448;44.960;-0.698;2022-09-29T08:13:58;5.22;;;1.90;;
46717;SDS011;32448;44.960;-0.698;2022-09-29T08:16:26;4.10;;;1.85;;
46717;SDS011;32448;44.960;-0.698;2022-09-29T08:18:54;6.28;;;1.80;;
46717;SDS011;32448;44.960;-0.698;2022-09-29T08:21:21;5.07;;;1.70;;
46717;SDS011;32448;44.960;-0.698;2022-09-29T08:23:48;4.50;;;2.03;;
46717;SDS011;32448;44.960;-0.698;2022-09-29T08:26:16;8.18;;;2.60;;
46717;SDS011;32448;44.960;-0.698;2022-09-29T08:28:55;4.25;;;1.65;;
46717;SDS011;32448;44.960;-0.698;2022-09-29T08:31:34;6.70;;;1.65;;
46717;SDS011;32448;44.960;-0.698;2022-09-29T08:34:02;3.65;;;1.58;;
46717;SDS011;32448;44.960;-0.698;2022-09-29T08:36:30;6.38;;;1.67;;
46717;SDS011;32448;44.960;-0.698;2022-09-29T08:38:57;5.85;;;1.95;;
46717;SDS011;32448;44.960;-0.698;2022-09-29T08:49:40;5.00;;;1.42;;
46717;SDS011;32448;44.960;-0.698;2022-09-29T08:52:18;4.65;;;1.60;;
46717;SDS011;32448;44.960;-0.698;2022-09-29T08:54:48;2.95;;;1.20;;
46717;SDS011;32448;44.960;-0.698;2022-09-29T08:57:19;3.17;;;1.13;;
46717;SDS011;32448;44.960;-0.698;2022-09-29T09:00:09;4.72;;;0.70;;
46717;SDS011;32448;44.960;-0.698;2022-09-29T09:05:57;3.38;;;0.90;;
46717;SDS011;32448;44.960;-0.698;2022-09-29T09:22:52;2.35;;;0.90;;
46717;SDS011;32448;44.960;-0.698;2022-09-29T09:30:38;2.47;;;0.80;;
46717;SDS011;32448;44.960;-0.698;2022-09-29T09:36:55;3.88;;;0.93;;
46717;SDS011;32448;44.960;-0.698;2022-09-29T09:41:43;2.65;;;0.80;;
46717;SDS011;32448;44.960;-0.698;2022-09-29T09:44:15;1.48;;;0.55;;
46717;SDS011;32448;44.960;-0.698;2022-09-29T09:47:33;2.53;;;0.60;;
46717;SDS011;32448;44.960;-0.698;2022-09-29T09:50:11;2.45;;;0.50;;
46717;SDS011;32448;44.960;-0.698;2022-09-29T09:55:17;3.13;;;0.60;;
46717;SDS011;32448;44.960;-0.698;2022-09-29T09:57:59;1.73;;;0.60;;
46717;SDS011;32448;44.960;-0.698;2022-09-29T10:00:45;3.67;;;0.90;;
46717;SDS011;32448;44.960;-0.698;2022-09-29T10:03:16;0.83;;;0.50;;
46717;SDS011;32448;44.960;-0.698;2022-09-29T10:05:44;3.25;;;0.82;;
46717;SDS011;32448;44.960;-0.698;2022-09-29T10:10:50;0.75;;;0.47;;
46717;SDS011;32448;44.960;-0.698;2022-09-29T10:13:25;4.35;;;0.63;;
46717;SDS011;32448;44.960;-0.698;2022-09-29T10:21:22;3.67;;;0.65;;
46717;SDS011;32448;44.960;-0.698;2022-09-29T10:23:55;2.17;;;0.45;;
46717;SDS011;32448;44.960;-0.698;2022-09-29T10:26:26;1.63;;;0.50;;
46717;SDS011;32448;44.960;-0.698;2022-09-29T10:29:01;1.67;;;0.45;;
46717;SDS011;32448;44.960;-0.698;2022-09-29T10:31:42;1.30;;;0.30;;
46717;SDS011;32448;44.960;-0.698;2022-09-29T10:34:27;2.40;;;0.73;;
46717;SDS011;32448;44.960;-0.698;2022-09-29T10:36:57;1.70;;;0.70;;
46717;SDS011;32448;44.960;-0.698;2022-09-29T10:39:32;3.33;;;0.50;;
46717;SDS011;32448;44.960;-0.698;2022-09-29T10:44:50;2.85;;;0.50;;
46717;SDS011;32448;44.960;-0.698;2022-09-29T10:49:47;0.95;;;0.40;;
46717;SDS011;32448;44.960;-0.698;2022-09-29T10:52:32;3.50;;;0.63;;
46717;SDS011;32448;44.960;-0.698;2022-09-29T10:55:00;2.47;;;0.50;;
46717;SDS011;32448;44.960;-0.698;2022-09-29T10:57:32;1.23;;;0.40;;
46717;SDS011;32448;44.960;-0.698;2022-09-29T11:00:01;2.30;;;0.47;;
46717;SDS011;32448;44.960;-0.698;2022-09-29T11:02:37;2.45;;;0.68;;
46717;SDS011;32448;44.960;-0.698;2022-09-29T11:05:16;3.50;;;0.57;;
46717;SDS011;32448;44.960;-0.698;2022-09-29T11:07:47;1.80;;;0.52;;
46717;SDS011;32448;44.960;-0.698;2022-09-29T11:10:30;2.38;;;0.70;;
46717;SDS011;32448;44.960;-0.698;2022-09-29T11:13:45;1.10;;;0.40;;
46717;SDS011;32448;44.960;-0.698;2022-09-29T11:15:50;2.97;;;0.55;;
46717;SDS011;32448;44.960;-0.698;2022-09-29T11:18:18;3.70;;;0.43;;
46717;SDS011;32448;44.960;-0.698;2022-09-29T11:20:54;2.72;;;0.40;;
46717;SDS011;32448;44.960;-0.698;2022-09-29T11:23:42;1.10;;;0.50;;
46717;SDS011;32448;44.960;-0.698;2022-09-29T11:26:26;2.22;;;0.50;;
46717;SDS011;32448;44.960;-0.698;2022-09-29T11:29:02;2.08;;;0.52;;
46717;SDS011;32448;44.960;-0.698;2022-09-29T11:41:06;1.85;;;0.68;;
46717;SDS011;32448;44.960;-0.698;2022-09-29T11:52:16;0.82;;;0.40;;
46717;SDS011;32448;44.960;-0.698;2022-09-29T11:58:21;2.65;;;0.57;;
46717;SDS011;32448;44.960;-0.698;2022-09-29T12:01:20;1.52;;;0.50;;
46717;SDS011;32448;44.960;-0.698;2022-09-29T12:07:23;2.25;;;0.40;;
46717;SDS011;32448;44.960;-0.698;2022-09-29T12:18:34;1.52;;;0.40;;
46717;SDS011;32448;44.960;-0.698;2022-09-29T12:21:07;1.25;;;0.22;;
46717;SDS011;32448;44.960;-0.698;2022-09-29T12:23:43;1.33;;;0.30;;
46717;SDS011;32448;44.960;-0.698;2022-09-29T12:26:14;0.82;;;0.30;;
46717;SDS011;32448;44.960;-0.698;2022-09-29T12:28:50;1.02;;;0.28;;
46717;SDS011;32448;44.960;-0.698;2022-09-29T12:31:25;3.10;;;0.55;;
46717;SDS011;32448;44.960;-0.698;2022-09-29T12:34:19;4.03;;;0.55;;
46717;SDS011;32448;44.960;-0.698;2022-09-29T12:37:09;3.75;;;0.60;;
46717;SDS011;32448;44.960;-0.698;2022-09-29T12:48:10;1.65;;;0.50;;
46717;SDS011;32448;44.960;-0.698;2022-09-29T12:51:04;5.10;;;0.77;;
46717;SDS011;32448;44.960;-0.698;2022-09-29T12:53:42;3.25;;;0.70;;
46717;SDS011;32448;44.960;-0.698;2022-09-29T12:56:17;3.42;;;0.65;;
46717;SDS011;32448;44.960;-0.698;2022-09-29T13:05:34;3.10;;;0.60;;
46717;SDS011;32448;44.960;-0.698;2022-09-29T13:10:54;3.45;;;0.68;;
46717;SDS011;32448;44.960;-0.698;2022-09-29T13:13:48;1.92;;;0.60;;
46717;SDS011;32448;44.960;-0.698;2022-09-29T13:16:35;4.78;;;0.85;;
46717;SDS011;32448;44.960;-0.698;2022-09-29T13:25:31;2.45;;;0.68;;
46717;SDS011;32448;44.960;-0.698;2022-09-29T13:28:10;5.55;;;0.90;;
46717;SDS011;32448;44.960;-0.698;2022-09-29T13:30:58;2.30;;;0.50;;
46717;SDS011;32448;44.960;-0.698;2022-09-29T13:33:30;3.20;;;0.70;;
46717;SDS011;32448;44.960;-0.698;2022-09-29T13:35:58;2.25;;;0.50;;
46717;SDS011;32448;44.960;-0.698;2022-09-29T13:38:30;2.63;;;0.50;;
46717;SDS011;32448;44.960;-0.698;2022-09-29T13:41:16;5.30;;;0.80;;
46717;SDS011;32448;44.960;-0.698;2022-09-29T13:44:17;2.95;;;0.60;;
46717;SDS011;32448;44.960;-0.698;2022-09-29T13:46:48;2.83;;;0.52;;
46717;SDS011;32448;44.960;-0.698;2022-09-29T13:49:26;2.95;;;1.00;;
46717;SDS011;32448;44.960;-0.698;2022-09-29T13:54:39;3.40;;;0.95;;
46717;SDS011;32448;44.960;-0.698;2022-09-29T14:02:36;2.47;;;0.60;;
46717;SDS011;32448;44.960;-0.698;2022-09-29T14:08:04;1.92;;;0.80;;
46717;SDS011;32448;44.960;-0.698;2022-09-29T14:10:58;3.78;;;0.90;;
46717;SDS011;32448;44.960;-0.698;2022-09-29T14:13:43;5.30;;;0.70;;
46717;SDS011;32448;44.960;-0.698;2022-09-29T14:19:09;8.98;;;1.55;;
46717;SDS011;32448;44.960;-0.698;2022-09-29T14:21:57;4.80;;;0.93;;
46717;SDS011;32448;44.960;-0.698;2022-09-29T14:27:22;2.05;;;0.70;;
46717;SDS011;32448;44.960;-0.698;2022-09-29T14:32:39;2.25;;;0.50;;
46717;SDS011;32448;44.960;-0.698;2022-09-29T14:35:15;1.50;;;0.60;;
46717;SDS011;32448;44.960;-0.698;2022-09-29T14:41:03;4.10;;;0.80;;
46717;SDS011;32448;44.960;-0.698;2022-09-29T15:06:46;5.90;;;2.17;;
46717;SDS011;32448;44.960;-0.698;2022-09-29T15:09:19;3.20;;;0.80;;
46717;SDS011;32448;44.960;-0.698;2022-09-29T15:11:52;2.17;;;0.75;;
46717;SDS011;32448;44.960;-0.698;2022-09-29T15:14:25;7.20;;;1.30;;
46717;SDS011;32448;44.960;-0.698;2022-09-29T15:22:29;5.05;;;1.02;;
46717;SDS011;32448;44.960;-0.698;2022-09-29T15:28:02;4.70;;;1.10;;
46717;SDS011;32448;44.960;-0.698;2022-09-29T15:30:31;6.47;;;1.33;;
46717;SDS011;32448;44.960;-0.698;2022-09-29T15:33:17;7.05;;;1.20;;
46717;SDS011;32448;44.960;-0.698;2022-09-29T15:35:58;6.30;;;1.02;;
46717;SDS011;32448;44.960;-0.698;2022-09-29T15:38:35;3.85;;;1.13;;
46717;SDS011;32448;44.960;-0.698;2022-09-29T15:43:57;10.90;;;1.40;;
46717;SDS011;32448;44.960;-0.698;2022-09-29T15:46:34;3.90;;;0.75;;
46717;SDS011;32448;44.960;-0.698;2022-09-29T15:49:09;4.10;;;0.70;;
46717;SDS011;32448;44.960;-0.698;2022-09-29T15:54:29;4.10;;;0.65;;
46717;SDS011;32448;44.960;-0.698;2022-09-29T15:57:00;6.25;;;1.48;;
46717;SDS011;32448;44.960;-0.698;2022-09-29T15:59:48;3.85;;;0.82;;
46717;SDS011;32448;44.960;-0.698;2022-09-29T16:05:05;6.43;;;1.27;;
46717;SDS011;32448;44.960;-0.698;2022-09-29T16:07:47;3.28;;;0.80;;
46717;SDS011;32448;44.960;-0.698;2022-09-29T16:10:27;5.43;;;0.98;;
46717;SDS011;32448;44.960;-0.698;2022-09-29T16:12:57;6.70;;;1.17;;
46717;SDS011;32448;44.960;-0.698;2022-09-29T16:15:34;4.57;;;0.75;;
46717;SDS011;32448;44.960;-0.698;2022-09-29T16:18:08;7.78;;;1.00;;
46717;SDS011;32448;44.960;-0.698;2022-09-29T16:20:42;6.38;;;0.80;;
46717;SDS011;32448;44.960;-0.698;2022-09-29T16:23:22;5.28;;;0.98;;
46717;SDS011;32448;44.960;-0.698;2022-09-29T16:28:34;6.75;;;1.00;;
46717;SDS011;32448;44.960;-0.698;2022-09-29T16:31:05;4.70;;;0.70;;
46717;SDS011;32448;44.960;-0.698;2022-09-29T16:33:44;4.90;;;1.27;;
46717;SDS011;32448;44.960;-0.698;2022-09-29T16:36:22;6.82;;;1.00;;
46717;SDS011;32448;44.960;-0.698;2022-09-29T16:38:52;3.92;;;0.95;;
46717;SDS011;32448;44.960;-0.698;2022-09-29T16:41:27;3.72;;;0.80;;
46717;SDS011;32448;44.960;-0.698;2022-09-29T16:44:05;8.43;;;0.90;;
46717;SDS011;32448;44.960;-0.698;2022-09-29T16:46:48;6.00;;;0.95;;
46717;SDS011;32448;44.960;-0.698;2022-09-29T16:49:35;3.67;;;0.75;;
46717;SDS011;32448;44.960;-0.698;2022-09-29T16:54:44;2.28;;;0.95;;
46717;SDS011;32448;44.960;-0.698;2022-09-29T16:57:20;4.78;;;1.02;;
46717;SDS011;32448;44.960;-0.698;2022-09-29T16:59:52;5.45;;;0.70;;
46717;SDS011;32448;44.960;-0.698;2022-09-29T17:02:21;4.32;;;0.60;;
46717;SDS011;32448;44.960;-0.698;2022-09-29T17:04:50;4.47;;;0.80;;
46717;SDS011;32448;44.960;-0.698;2022-09-29T17:07:20;3.08;;;0.75;;
46717;SDS011;32448;44.960;-0.698;2022-09-29T17:09:53;2.80;;;0.65;;
46717;SDS011;32448;44.960;-0.698;2022-09-29T17:14:50;4.35;;;0.55;;
46717;SDS011;32448;44.960;-0.698;2022-09-29T17:17:22;4.53;;;0.80;;
46717;SDS011;32448;44.960;-0.698;2022-09-29T17:19:51;2.25;;;0.65;;
46717;SDS011;32448;44.960;-0.698;2022-09-29T17:24:52;7.13;;;0.70;;
46717;SDS011;32448;44.960;-0.698;2022-09-29T17:27:19;6.57;;;0.70;;
46717;SDS011;32448;44.960;-0.698;2022-09-29T17:30:06;1.88;;;0.50;;
46717;SDS011;32448;44.960;-0.698;2022-09-29T17:32:33;6.03;;;1.10;;
46717;SDS011;32448;44.960;-0.698;2022-09-29T17:35:01;4.00;;;0.52;;
46717;SDS011;32448;44.960;-0.698;2022-09-29T17:37:29;3.53;;;0.77;;
46717;SDS011;32448;44.960;-0.698;2022-09-29T17:39:56;3.42;;;0.43;;
46717;SDS011;32448;44.960;-0.698;2022-09-29T17:42:24;2.45;;;0.50;;
46717;SDS011;32448;44.960;-0.698;2022-09-29T17:44:52;1.05;;;0.35;;
46717;SDS011;32448;44.960;-0.698;2022-09-29T17:47:19;6.72;;;0.63;;
46717;SDS011;32448;44.960;-0.698;2022-09-29T17:49:55;4.13;;;0.60;;
46717;SDS011;32448;44.960;-0.698;2022-09-29T17:52:22;3.92;;;0.60;;
46717;SDS011;32448;44.960;-0.698;2022-09-29T17:54:49;4.85;;;0.50;;
46717;SDS011;32448;44.960;-0.698;2022-09-29T17:57:24;2.47;;;0.65;;
46717;SDS011;32448;44.960;-0.698;2022-09-29T17:59:53;4.60;;;0.52;;
46717;SDS011;32448;44.960;-0.698;2022-09-29T18:02:20;2.53;;;0.43;;
46717;SDS011;32448;44.960;-0.698;2022-09-29T18:04:49;6.78;;;0.80;;
46717;SDS011;32448;44.960;-0.698;2022-09-29T18:07:16;4.63;;;0.50;;
46717;SDS011;32448;44.960;-0.698;2022-09-29T18:09:44;6.03;;;1.05;;
46717;SDS011;32448;44.960;-0.698;2022-09-29T18:12:12;2.70;;;0.70;;
46717;SDS011;32448;44.960;-0.698;2022-09-29T18:14:39;2.65;;;0.88;;
46717;SDS011;32448;44.960;-0.698;2022-09-29T18:17:07;3.97;;;0.50;;
46717;SDS011;32448;44.960;-0.698;2022-09-29T18:19:35;2.78;;;0.50;;
46717;SDS011;32448;44.960;-0.698;2022-09-29T18:22:06;3.70;;;0.52;;
46717;SDS011;32448;44.960;-0.698;2022-09-29T18:24:33;4.72;;;0.50;;
46717;SDS011;32448;44.960;-0.698;2022-09-29T18:27:00;7.70;;;0.98;;
46717;SDS011;32448;44.960;-0.698;2022-09-29T18:29:28;1.85;;;0.55;;